Time;durP1;ratioP1;P1;durP2;ratioP2;P2;SDS_P1;SDS_P2;PMS_P1;PMS_P2;Temp;Humidity;BMP_temperature;BMP_pressure;BME280_temperature;BME280_humidity;BME280_pressure;Samples;Min_cycle;Max_cycle;Signal;HPM_P1;HPM_P2
2024/04/16 00:02:20;;;;;;;11.70;5.13;;;;;;;7.95;75.60;98577.00;5450595;26;20246;-66
2024/04/16 00:04:50;;;;;;;8.20;4.80;;;;;;;7.95;75.98;98571.88;5450465;26;20245;-65
2024/04/16 00:07:17;;;;;;;10.53;5.30;;;;;;;7.91;75.94;98572.84;5451201;26;20230;-66
2024/04/16 00:09:47;;;;;;;8.37;5.00;;;;;;;7.88;76.14;98563.50;5451475;26;20303;-64
2024/04/16 00:12:14;;;;;;;10.27;5.13;;;;;;;7.88;76.50;98568.66;5449196;26;20570;-65
2024/04/16 00:14:50;;;;;;;7.63;5.47;;;;;;;7.88;76.53;98560.94;5429855;26;20234;-66
2024/04/16 00:17:18;;;;;;;12.00;5.80;;;;;;;7.86;76.63;98554.16;5451006;26;20343;-66
2024/04/16 00:19:48;;;;;;;12.17;5.50;;;;;;;7.85;77.44;98542.22;5451493;26;20238;-64
2024/04/16 00:22:15;;;;;;;14.13;5.93;;;;;;;7.82;77.44;98514.09;5451337;26;20342;-66
2024/04/16 00:24:45;;;;;;;10.27;5.33;;;;;;;7.79;77.68;98498.78;5447665;26;20250;-65
2024/04/16 00:27:13;;;;;;;10.37;6.30;;;;;;;7.73;77.82;98475.00;5451654;26;20234;-66
2024/04/16 00:29:45;;;;;;;8.93;5.13;;;;;;;7.73;77.69;98467.31;5452059;26;20269;-66
2024/04/16 00:32:15;;;;;;;12.60;5.60;;;;;;;7.73;77.77;98476.69;5445903;26;20351;-65
2024/04/16 00:34:45;;;;;;;8.33;4.87;;;;;;;7.74;77.60;98468.97;5450872;26;20732;-65
2024/04/16 00:37:12;;;;;;;12.33;5.67;;;;;;;7.79;77.23;98466.28;5451313;26;20583;-65
2024/04/16 00:39:42;;;;;;;8.50;5.30;;;;;;;7.81;76.97;98468.84;5451676;26;20242;-68
2024/04/16 00:42:09;;;;;;;11.53;5.77;;;;;;;7.82;76.90;98465.38;5448340;26;20242;-64
2024/04/16 00:44:39;;;;;;;11.83;5.13;;;;;;;7.86;77.09;98461.84;5451205;26;20581;-64
2024/04/16 00:47:07;;;;;;;8.67;5.33;;;;;;;7.85;76.40;98465.31;5451387;26;20732;-66
2024/04/16 00:49:40;;;;;;;11.63;5.67;;;;;;;7.83;76.92;98493.53;5449984;26;20246;-66
2024/04/16 00:52:08;;;;;;;9.63;5.27;;;;;;;7.81;76.79;98504.72;5443339;26;20261;-65
2024/04/16 00:54:38;;;;;;;11.13;5.40;;;;;;;7.87;76.94;98525.91;5451834;26;20238;-66
2024/04/16 00:57:06;;;;;;;12.23;6.27;;;;;;;7.88;77.05;98542.13;5451660;26;20709;-66
2024/04/16 00:59:39;;;;;;;12.60;5.83;;;;;;;7.89;77.23;98536.16;5447528;26;20257;-66
2024/04/16 01:02:06;;;;;;;10.17;6.03;;;;;;;7.95;76.45;98508.63;5437716;26;20234;-66
2024/04/16 01:04:40;;;;;;;12.17;5.70;;;;;;;7.96;77.20;98483.81;5451210;26;20237;-65
2024/04/16 01:07:08;;;;;;;10.13;6.23;;;;;;;7.93;78.34;98456.53;5451715;26;20280;-65
2024/04/16 01:09:38;;;;;;;12.13;6.20;;;;;;;7.82;79.57;98444.88;5447030;26;20246;-66
2024/04/16 01:12:06;;;;;;;11.70;5.40;;;;;;;7.73;80.86;98474.13;5450430;26;20342;-66
2024/04/16 01:14:35;;;;;;;8.93;5.37;;;;;;;7.64;81.68;98480.34;5450234;26;20351;-66
2024/04/16 01:17:03;;;;;;;11.23;6.33;;;;;;;7.65;82.49;98499.97;5447820;26;20250;-67
2024/04/16 01:19:33;;;;;;;13.20;6.63;;;;;;;7.63;83.45;98499.16;5450619;26;20234;-66
2024/04/16 01:22:03;;;;;;;11.57;6.77;;;;;;;7.59;83.86;98500.13;5450495;26;20717;-64
2024/04/16 01:24:35;;;;;;;14.67;6.93;;;;;;;7.57;85.04;98466.00;5441601;26;20288;-66
2024/04/16 01:27:03;;;;;;;14.60;6.33;;;;;;;7.52;85.70;98484.94;5450640;26;20656;-66
2024/04/16 01:29:33;;;;;;;9.17;6.33;;;;;;;7.45;87.09;98507.31;5447975;26;21042;-66
2024/04/16 01:32:00;;;;;;;10.00;6.97;;;;;;;7.43;87.38;98517.56;5450151;26;20234;-65
2024/04/16 01:34:30;;;;;;;13.27;6.73;;;;;;;7.45;87.94;98533.75;5445696;26;20254;-66
2024/04/16 01:36:57;;;;;;;16.23;7.83;;;;;;;7.51;88.06;98553.28;5450063;26;20242;-65
2024/04/16 01:39:27;;;;;;;12.73;7.63;;;;;;;7.55;89.05;98548.91;5450699;26;20245;-65
2024/04/16 01:41:57;;;;;;;10.63;7.10;;;;;;;7.57;89.35;98527.50;5448856;26;20270;-64
2024/04/16 01:44:26;;;;;;;11.67;7.77;;;;;;;7.57;90.14;98507.00;5444840;26;20358;-64
2024/04/16 01:46:54;;;;;;;9.30;6.73;;;;;;;7.59;89.82;98476.22;5448506;26;20771;-66
2024/04/16 01:49:24;;;;;;;11.70;7.17;;;;;;;7.57;90.71;98507.00;5447701;26;20563;-65
2024/04/16 01:51:52;;;;;;;10.97;6.80;;;;;;;7.59;91.09;98505.25;5442455;26;20234;-65
2024/04/16 01:54:21;;;;;;;11.60;6.53;;;;;;;7.58;90.90;98507.84;5446175;26;20738;-65
2024/04/16 01:56:50;;;;;;;10.73;6.50;;;;;;;7.56;90.89;98484.81;5450454;26;20284;-67
2024/04/16 01:59:23;;;;;;;9.93;6.40;;;;;;;7.57;91.47;98467.72;5449955;26;20230;-69
2024/04/16 02:01:50;;;;;;;12.27;6.40;;;;;;;7.57;91.44;98455.75;5449951;26;20246;-66
2024/04/16 02:04:21;;;;;;;11.70;7.00;;;;;;;7.60;91.82;98460.78;5449760;26;20280;-65
2024/04/16 02:06:49;;;;;;;10.77;6.63;;;;;;;7.67;92.10;98449.50;5441498;26;20235;-64
2024/04/16 02:09:18;;;;;;;11.77;6.70;;;;;;;7.67;92.12;98434.13;5440434;26;20638;-66
2024/04/16 02:11:45;;;;;;;13.20;6.97;;;;;;;7.67;92.04;98433.28;5449551;26;20242;-65
2024/04/16 02:14:15;;;;;;;9.80;6.73;;;;;;;7.66;91.92;98419.63;5447069;26;20331;-66
2024/04/16 02:16:45;;;;;;;11.10;6.80;;;;;;;7.63;92.15;98404.34;5450026;26;20234;-64
2024/04/16 02:19:15;;;;;;;10.00;6.70;;;;;;;7.65;92.37;98407.69;5449367;26;20226;-65
2024/04/16 02:21:42;;;;;;;13.13;7.33;;;;;;;7.67;92.56;98403.38;5449320;26;20242;-63
2024/04/16 02:24:12;;;;;;;13.57;7.77;;;;;;;7.68;92.67;98397.34;5448566;26;20779;-64
2024/04/16 02:26:39;;;;;;;12.63;7.53;;;;;;;7.69;92.59;98388.78;5449622;26;20270;-65
2024/04/16 02:29:09;;;;;;;13.27;7.40;;;;;;;7.70;92.86;98374.25;5449427;26;20235;-62
2024/04/16 02:31:36;;;;;;;17.63;7.63;;;;;;;7.69;92.24;98357.16;5447800;26;20238;-62
2024/04/16 02:34:09;;;;;;;9.70;7.10;;;;;;;7.68;92.76;98343.53;5449320;26;20312;-63
2024/04/16 02:36:36;;;;;;;14.23;7.10;;;;;;;7.65;92.51;98330.78;5452772;26;20234;-62
2024/04/16 02:39:06;;;;;;;13.87;7.33;;;;;;;7.61;92.92;98334.31;5452828;26;20246;-62
2024/04/16 02:41:33;;;;;;;12.17;7.43;;;;;;;7.63;92.99;98337.69;5452533;26;20339;-63
2024/04/16 02:44:03;;;;;;;9.20;6.67;;;;;;;7.62;93.08;98338.59;5452954;26;20339;-62
2024/04/16 02:46:30;;;;;;;13.37;7.57;;;;;;;7.61;93.13;98341.16;5449284;26;20745;-64
2024/04/16 02:49:00;;;;;;;9.97;6.07;;;;;;;7.62;93.67;98351.41;5417554;26;20223;-63
2024/04/16 02:51:30;;;;;;;13.27;8.27;;;;;;;7.68;93.68;98347.81;5446201;26;20719;-65
2024/04/16 02:54:00;;;;;;;11.67;7.90;;;;;;;7.69;93.42;98342.63;5451953;26;20254;-63
2024/04/16 02:56:27;;;;;;;11.37;7.40;;;;;;;7.67;93.51;98344.41;5443518;26;21955;-61
2024/04/16 02:58:57;;;;;;;11.23;7.77;;;;;;;7.73;93.78;98344.25;5452533;26;20230;-64
2024/04/16 03:01:24;;;;;;;11.37;7.03;;;;;;;7.77;93.35;98339.00;5453001;26;20321;-63
2024/04/16 03:03:57;;;;;;;10.63;6.83;;;;;;;7.79;93.17;98345.78;5452728;26;20416;-62
2024/04/16 03:06:25;;;;;;;9.63;6.60;;;;;;;7.81;93.44;98345.75;5451886;26;20763;-64
2024/04/16 03:08:57;;;;;;;10.27;6.63;;;;;;;7.83;93.61;98339.69;5446633;26;20283;-64
2024/04/16 03:11:25;;;;;;;10.70;7.10;;;;;;;7.88;93.66;98337.84;5451838;26;20234;-62
2024/04/16 03:13:55;;;;;;;9.70;6.80;;;;;;;7.88;93.46;98340.44;5452142;26;20230;-64
2024/04/16 03:16:22;;;;;;;12.50;7.57;;;;;;;7.89;93.54;98333.56;5452177;26;20238;-63
2024/04/16 03:18:53;;;;;;;12.60;7.07;;;;;;;7.89;93.65;98329.28;5452309;26;20265;-63
2024/04/16 03:21:23;;;;;;;9.53;7.40;;;;;;;7.92;93.75;98328.34;5452266;26;20594;-63
2024/04/16 03:23:57;;;;;;;9.13;7.23;;;;;;;7.91;94.02;98332.63;5450785;26;20276;-62
2024/04/16 03:26:24;;;;;;;10.43;7.50;;;;;;;7.91;94.03;98332.63;5445745;26;20254;-63
2024/04/16 03:28:54;;;;;;;11.53;6.97;;;;;;;7.89;94.18;98334.41;5451104;26;20343;-61
2024/04/16 03:31:21;;;;;;;10.10;6.93;;;;;;;7.86;94.35;98308.84;5452375;26;20643;-64
2024/04/16 03:33:51;;;;;;;11.70;7.43;;;;;;;7.88;94.48;98308.78;5452048;26;20242;-66
2024/04/16 03:36:18;;;;;;;10.17;6.90;;;;;;;7.87;94.28;98309.69;5450960;26;20322;-66
2024/04/16 03:38:48;;;;;;;10.53;7.13;;;;;;;7.85;94.26;98306.34;5451703;26;20234;-65
2024/04/16 03:41:21;;;;;;;9.90;7.00;;;;;;;7.84;94.62;98317.44;5433369;26;20234;-65
2024/04/16 03:43:52;;;;;;;10.17;6.90;;;;;;;7.82;94.63;98307.25;5447116;26;20313;-65
2024/04/16 03:46:22;;;;;;;10.80;7.33;;;;;;;7.81;94.86;98302.19;5446966;26;20750;-65
2024/04/16 03:48:52;;;;;;;12.07;7.70;;;;;;;7.73;94.75;98302.38;5451916;26;20718;-64
2024/04/16 03:51:20;;;;;;;9.37;7.03;;;;;;;7.71;95.19;98304.97;5452253;26;20238;-65
2024/04/16 03:53:49;;;;;;;10.47;6.50;;;;;;;7.70;94.88;98315.31;5442156;26;20567;-65
2024/04/16 03:56:19;;;;;;;12.50;7.60;;;;;;;7.68;95.03;98322.19;5452610;26;20728;-65
2024/04/16 03:59:14;;;;;;;13.37;7.83;;;;;;;7.66;95.15;98326.53;5451606;26;20672;-65
2024/04/16 04:01:42;;;;;;;11.63;7.40;;;;;;;7.62;95.69;98320.63;5444240;26;20250;-66
2024/04/16 04:04:12;;;;;;;9.70;7.40;;;;;;;7.64;95.92;98333.41;5449064;26;20301;-64
2024/04/16 04:06:39;;;;;;;10.70;7.13;;;;;;;7.66;96.23;98352.16;5451064;26;20321;-67
2024/04/16 04:09:09;;;;;;;12.67;7.47;;;;;;;7.68;96.40;98356.34;5450900;26;20242;-66
2024/04/16 04:11:39;;;;;;;10.43;7.77;;;;;;;7.70;96.34;98362.28;5445440;26;20279;-66
2024/04/16 04:14:08;;;;;;;11.30;8.43;;;;;;;7.74;96.42;98366.44;5448374;26;20238;-66
2024/04/16 04:16:35;;;;;;;9.60;8.27;;;;;;;7.75;96.76;98365.53;5447387;26;20682;-65
2024/04/16 04:19:05;;;;;;;13.07;8.43;;;;;;;7.77;96.31;98369.78;5426682;26;20714;-65
2024/04/16 04:21:32;;;;;;;11.90;7.77;;;;;;;7.80;96.60;98375.66;5450794;26;20242;-66
2024/04/16 04:24:02;;;;;;;11.67;7.73;;;;;;;7.80;96.64;98377.41;5422555;26;20729;-65
2024/04/16 04:26:41;;;;;;;10.73;8.70;;;;;;;7.85;96.69;98373.00;5437815;26;20345;-66
2024/04/16 04:29:11;;;;;;;10.50;9.10;;;;;;;7.85;96.61;98383.25;5452140;26;20361;-64
2024/04/16 04:31:38;;;;;;;10.13;7.67;;;;;;;7.88;95.96;98388.28;5447310;26;20250;-65
2024/04/16 04:34:08;;;;;;;13.07;7.67;;;;;;;7.92;95.51;98372.78;5449976;26;20338;-65
2024/04/16 04:36:35;;;;;;;12.80;8.10;;;;;;;7.97;95.30;98380.34;5451395;26;20230;-65
2024/04/16 04:39:06;;;;;;;9.90;7.87;;;;;;;8.03;94.89;98403.28;5451561;26;20237;-66
2024/04/16 04:41:33;;;;;;;10.67;7.77;;;;;;;8.06;94.48;98392.91;5450700;26;20249;-63
2024/04/16 04:44:06;;;;;;;11.17;8.00;;;;;;;8.09;94.32;98407.38;5447725;26;20342;-62
2024/04/16 04:46:33;;;;;;;9.03;7.60;;;;;;;8.13;94.03;98414.94;5449433;26;20230;-62
2024/04/16 04:49:03;;;;;;;8.57;7.30;;;;;;;8.15;93.81;98413.19;5447924;26;20242;-61
2024/04/16 04:51:36;;;;;;;11.07;6.63;;;;;;;8.18;93.56;98413.09;5450596;26;20248;-61
2024/04/16 04:54:03;;;;;;;9.03;6.27;;;;;;;8.16;92.67;98432.81;5450910;26;20342;-63
2024/04/16 04:56:33;;;;;;;9.77;5.93;;;;;;;8.16;93.06;98412.28;5450054;26;20226;-63
2024/04/16 04:59:03;;;;;;;7.93;5.57;;;;;;;8.18;92.26;98417.38;5450893;26;20264;-62
2024/04/16 05:01:32;;;;;;;7.40;5.43;;;;;;;8.20;92.13;98410.47;5442867;26;20299;-63
2024/04/16 05:04:00;;;;;;;9.47;5.07;;;;;;;8.20;90.97;98413.88;5441982;26;20275;-62
2024/04/16 05:06:29;;;;;;;5.90;4.13;;;;;;;8.21;89.88;98422.41;5449923;26;20280;-63
2024/04/16 05:08:57;;;;;;;5.37;4.03;;;;;;;8.19;89.16;98432.72;5445767;26;20740;-63
2024/04/16 05:11:26;;;;;;;4.20;3.37;;;;;;;8.18;88.94;98449.00;5450665;26;20242;-65
2024/04/16 05:13:54;;;;;;;5.27;3.27;;;;;;;8.17;88.19;98454.16;5450209;26;20246;-63
2024/04/16 05:16:26;;;;;;;2.70;2.43;;;;;;;8.11;85.83;98473.16;5448781;26;20238;-60
2024/04/16 05:18:54;;;;;;;6.77;1.67;;;;;;;8.04;82.75;98481.88;5452407;26;20578;-62
2024/04/16 05:21:23;;;;;;;1.57;1.43;;;;;;;7.92;81.94;98507.88;5440812;26;20413;-63
2024/04/16 05:23:51;;;;;;;1.73;1.30;;;;;;;7.85;80.02;98511.47;5450887;26;20234;-63
2024/04/16 05:26:22;;;;;;;0.90;0.90;;;;;;;7.77;79.20;98508.22;5452008;26;20286;-64
2024/04/16 05:28:50;;;;;;;2.03;0.73;;;;;;;7.66;78.44;98521.34;5452130;26;20822;-64
2024/04/16 05:31:19;;;;;;;0.50;0.50;;;;;;;7.51;76.53;98512.25;5449882;26;20267;-64
2024/04/16 05:33:51;;;;;;;0.67;0.50;;;;;;;7.40;76.96;98535.59;5443225;26;20257;-63
2024/04/16 05:36:21;;;;;;;0.90;0.70;;;;;;;7.35;77.48;98521.19;5449446;26;20821;-63
2024/04/16 05:38:48;;;;;;;0.90;0.63;;;;;;;7.34;77.77;98550.28;5447967;26;20298;-61
2024/04/16 05:41:18;;;;;;;2.30;0.70;;;;;;;7.30;78.34;98541.81;5446906;26;20660;-61
2024/04/16 05:43:47;;;;;;;0.70;0.70;;;;;;;7.29;79.08;98552.94;5443015;26;20671;-63
2024/04/16 05:46:17;;;;;;;0.67;0.67;;;;;;;7.29;78.57;98558.06;5448924;26;20308;-63
2024/04/16 05:48:46;;;;;;;1.67;0.90;;;;;;;7.29;78.63;98555.50;5447947;26;20254;-65
2024/04/16 05:51:18;;;;;;;1.47;1.07;;;;;;;7.28;78.49;98561.47;5449221;26;20246;-65
2024/04/16 05:53:45;;;;;;;1.17;1.00;;;;;;;7.28;78.19;98569.16;5444866;26;20315;-64
2024/04/16 05:56:15;;;;;;;1.03;0.97;;;;;;;7.28;77.02;98550.41;5450113;26;20666;-64
2024/04/16 05:58:42;;;;;;;0.63;0.63;;;;;;;7.37;76.40;98563.00;5448295;26;20808;-65
2024/04/16 06:01:12;;;;;;;1.23;0.87;;;;;;;7.48;74.17;98536.25;5448673;26;20272;-63
2024/04/16 06:03:40;;;;;;;0.83;0.80;;;;;;;7.51;73.83;98558.41;5445384;26;20288;-61
2024/04/16 06:06:10;;;;;;;0.87;0.77;;;;;;;7.58;72.66;98554.81;5449020;26;20297;-63
2024/04/16 06:08:40;;;;;;;0.60;0.57;;;;;;;7.72;70.44;98557.91;5447800;26;20234;-61
2024/04/16 06:11:09;;;;;;;2.43;0.80;;;;;;;7.81;70.42;98546.59;5448491;26;20234;-63
2024/04/16 06:13:37;;;;;;;3.77;0.80;;;;;;;7.90;70.45;98554.03;5447371;26;20724;-61
2024/04/16 06:16:10;;;;;;;2.10;0.80;;;;;;;8.08;69.59;98555.31;5452404;26;20712;-63
2024/04/16 06:18:40;;;;;;;1.83;0.60;;;;;;;8.20;67.28;98561.84;5451130;26;20284;-61
2024/04/16 06:21:10;;;;;;;0.60;0.60;;;;;;;8.20;67.35;98549.03;5449156;26;20289;-65
2024/04/16 06:23:39;;;;;;;1.43;0.80;;;;;;;8.17;66.45;98554.22;5451835;26;20226;-67
2024/04/16 06:26:10;;;;;;;1.00;0.90;;;;;;;8.18;66.73;98572.16;5452286;26;20246;-68
2024/04/16 06:28:37;;;;;;;1.00;0.70;;;;;;;8.34;66.71;98559.75;5452381;26;21999;-68
2024/04/16 06:31:07;;;;;;;1.50;0.60;;;;;;;8.29;65.46;98581.31;5453581;26;20222;-69
2024/04/16 06:33:36;;;;;;;0.97;0.90;;;;;;;8.09;66.18;98557.00;5450809;26;20295;-66
2024/04/16 06:36:07;;;;;;;1.23;0.93;;;;;;;7.93;67.63;98583.91;5453163;26;20242;-66
2024/04/16 06:38:34;;;;;;;0.70;0.70;;;;;;;7.84;68.54;98597.81;5451429;26;20246;-66
2024/04/16 06:41:07;;;;;;;2.50;1.20;;;;;;;7.72;69.01;98583.53;5453886;26;21140;-68
2024/04/16 06:43:34;;;;;;;1.60;1.00;;;;;;;7.69;69.62;98595.56;5453893;26;20222;-67
2024/04/16 06:46:04;;;;;;;1.60;1.00;;;;;;;7.66;70.00;98578.56;5452258;26;20323;-67
2024/04/16 06:48:32;;;;;;;0.87;0.87;;;;;;;7.64;69.75;98589.72;5453659;26;20738;-66
2024/04/16 06:51:03;;;;;;;0.90;0.90;;;;;;;7.58;70.15;98589.84;5451087;26;20290;-67
2024/04/16 06:53:31;;;;;;;1.97;1.03;;;;;;;7.52;70.97;98585.72;5446818;26;20246;-65
2024/04/16 06:56:02;;;;;;;1.50;1.00;;;;;;;7.46;70.79;98594.38;5452067;26;20234;-65
2024/04/16 06:58:31;;;;;;;2.40;0.70;;;;;;;7.44;70.68;98603.84;5450901;26;20580;-64
2024/04/16 07:01:02;;;;;;;3.40;1.00;;;;;;;7.37;70.59;98602.28;5446166;26;20784;-70
2024/04/16 07:03:30;;;;;;;2.23;1.10;;;;;;;7.36;69.77;98603.16;5451981;26;20238;-64
2024/04/16 07:05:59;;;;;;;4.10;1.20;;;;;;;7.42;69.46;98600.47;5451803;26;20238;-65
2024/04/16 07:08:29;;;;;;;1.20;1.00;;;;;;;7.58;68.22;98600.94;5449586;26;20784;-66
2024/04/16 07:10:59;;;;;;;2.00;1.00;;;;;;;7.70;67.01;98590.44;5429096;26;20783;-68
2024/04/16 07:13:29;;;;;;;4.90;1.20;;;;;;;7.74;67.00;98586.91;5446360;26;20246;-65
2024/04/16 07:16:00;;;;;;;3.63;1.40;;;;;;;7.72;66.34;98604.03;5451267;26;20242;-64
2024/04/16 07:18:32;;;;;;;2.17;1.40;;;;;;;7.70;66.84;98610.94;5438849;26;20310;-64
2024/04/16 07:21:00;;;;;;;2.00;1.67;;;;;;;7.74;66.67;98610.00;5447726;26;20756;-66
2024/04/16 07:23:32;;;;;;;1.83;1.00;;;;;;;7.83;65.90;98610.66;5451218;26;20732;-62
2024/04/16 07:25:59;;;;;;;4.17;1.10;;;;;;;8.16;64.66;98607.25;5447258;26;20226;-65
2024/04/16 07:28:33;;;;;;;1.13;1.00;;;;;;;8.70;62.07;98618.75;5451885;26;20242;-66
2024/04/16 07:31:03;;;;;;;1.37;1.07;;;;;;;8.87;61.20;98628.56;5450573;26;20576;-68
2024/04/16 07:33:42;;;;;;;2.03;1.00;;;;;;;8.82;60.53;98635.56;5447665;26;20250;-68
2024/04/16 07:36:09;;;;;;;1.40;1.20;;;;;;;8.65;61.50;98633.41;5449921;26;20238;-66
2024/04/16 07:38:40;;;;;;;1.30;1.03;;;;;;;8.53;61.55;98639.72;5452356;26;20242;-65
2024/04/16 07:41:08;;;;;;;1.40;1.30;;;;;;;8.43;62.62;98663.94;5452834;26;20242;-68
2024/04/16 07:43:38;;;;;;;1.30;1.10;;;;;;;8.34;62.40;98649.59;5450613;26;20313;-66
2024/04/16 07:46:08;;;;;;;1.73;1.23;;;;;;;8.23;62.46;98646.44;5449261;26;21130;-67
2024/04/16 07:48:38;;;;;;;2.20;1.10;;;;;;;8.15;62.72;98656.91;5448496;26;20234;-66
2024/04/16 07:51:06;;;;;;;2.50;1.10;;;;;;;8.11;61.96;98652.72;5450846;26;20354;-65
2024/04/16 07:53:37;;;;;;;1.37;0.90;;;;;;;8.02;61.62;98658.06;5452690;26;20234;-70
2024/04/16 07:56:05;;;;;;;1.77;1.10;;;;;;;7.99;61.47;98673.53;5451990;26;20284;-69
2024/04/16 07:58:35;;;;;;;2.13;1.00;;;;;;;7.96;61.87;98627.44;5451459;26;20234;-67
2024/04/16 08:01:02;;;;;;;4.80;1.43;;;;;;;8.00;60.37;98664.97;5450508;26;20242;-66
2024/04/16 08:03:35;;;;;;;1.70;1.00;;;;;;;8.04;60.24;98656.31;5451467;26;20342;-66
2024/04/16 08:06:02;;;;;;;1.33;1.10;;;;;;;8.05;60.18;98660.56;5445328;26;20238;-66
2024/04/16 08:08:32;;;;;;;1.57;1.20;;;;;;;8.04;59.88;98651.19;5449158;26;20280;-67
2024/04/16 08:11:08;;;;;;;3.63;1.23;;;;;;;8.04;60.21;98642.66;5437163;26;20729;-65
2024/04/16 08:13:39;;;;;;;1.10;1.00;;;;;;;8.02;60.73;98646.97;5447577;26;21437;-67
2024/04/16 08:16:07;;;;;;;2.13;1.20;;;;;;;8.02;60.50;98640.09;5450427;26;20287;-66
2024/04/16 08:18:39;;;;;;;3.37;1.27;;;;;;;8.01;60.73;98632.47;5451704;26;20229;-66
2024/04/16 08:21:08;;;;;;;2.27;1.23;;;;;;;8.10;60.74;98637.34;5451332;26;20254;-65
2024/04/16 08:23:38;;;;;;;1.23;1.13;;;;;;;8.15;60.46;98641.50;5450831;26;20338;-66
2024/04/16 08:26:06;;;;;;;1.50;1.03;;;;;;;8.20;59.54;98641.38;5451693;26;20230;-67
2024/04/16 08:28:39;;;;;;;2.10;1.20;;;;;;;8.21;58.94;98648.19;5443430;26;20250;-66
2024/04/16 08:31:06;;;;;;;1.73;1.30;;;;;;;8.19;59.20;98645.69;5447535;26;20258;-66
2024/04/16 08:33:39;;;;;;;1.53;1.10;;;;;;;8.28;59.34;98652.28;5449388;26;20246;-66
2024/04/16 08:36:08;;;;;;;2.07;1.20;;;;;;;8.44;58.73;98645.94;5451294;26;20245;-63
2024/04/16 08:38:38;;;;;;;2.17;1.00;;;;;;;8.57;58.26;98661.88;5448294;26;20342;-66
2024/04/16 08:41:06;;;;;;;3.33;1.03;;;;;;;8.59;57.69;98672.13;5449554;26;20257;-67
2024/04/16 08:43:37;;;;;;;2.80;1.13;;;;;;;8.46;56.43;98669.00;5451418;26;20234;-66
2024/04/16 08:46:06;;;;;;;4.00;1.40;;;;;;;8.39;56.77;98677.72;5451368;26;20280;-66
2024/04/16 08:48:41;;;;;;;1.40;0.90;;;;;;;8.34;56.38;98694.94;5451070;26;20334;-66
2024/04/16 08:51:13;;;;;;;2.27;1.13;;;;;;;8.28;56.64;98708.75;5450398;26;20245;-65
2024/04/16 08:53:44;;;;;;;1.53;0.87;;;;;;;8.24;55.99;98725.94;5451341;26;20351;-64
2024/04/16 08:56:12;;;;;;;2.20;1.03;;;;;;;8.19;55.57;98750.88;5436671;26;20848;-66
2024/04/16 08:58:43;;;;;;;1.13;0.80;;;;;;;8.16;54.63;98722.72;5450769;26;20673;-64
2024/04/16 09:01:12;;;;;;;1.20;0.90;;;;;;;8.16;54.76;98730.41;5449889;26;20293;-64
2024/04/16 09:03:49;;;;;;;3.60;0.97;;;;;;;8.17;55.28;98731.25;5462968;26;20239;-64
2024/04/16 09:06:17;;;;;;;7.20;1.30;;;;;;;8.17;54.79;98754.34;5436897;26;20229;-66
2024/04/16 09:08:47;;;;;;;2.27;1.30;;;;;;;8.13;55.47;98758.69;5423422;26;20246;-68
2024/04/16 09:11:31;;;;;;;1.80;1.03;;;;;;;8.11;55.95;98749.38;5448352;26;20239;-66
2024/04/16 09:14:01;;;;;;;2.70;1.27;;;;;;;8.13;55.29;98774.09;5449036;26;20272;-72
2024/04/16 09:16:29;;;;;;;3.17;1.30;;;;;;;8.06;55.49;98792.22;5439630;26;20722;-67
2024/04/16 09:19:11;;;;;;;1.37;1.10;;;;;;;8.03;55.84;98782.00;5453628;26;20253;-66
2024/04/16 09:21:39;;;;;;;4.63;1.30;;;;;;;8.04;55.32;98787.13;5450917;26;20299;-66
2024/04/16 09:24:10;;;;;;;1.40;1.13;;;;;;;8.01;55.32;98805.16;5450102;26;20309;-64
2024/04/16 09:26:38;;;;;;;4.27;1.00;;;;;;;7.99;55.25;98804.34;5449203;26;20246;-65
2024/04/16 09:29:08;;;;;;;1.53;1.00;;;;;;;7.99;55.66;98814.63;5449833;26;20701;-64
2024/04/16 09:31:35;;;;;;;2.40;1.20;;;;;;;7.98;55.19;98812.91;5446842;26;20246;-66
2024/04/16 09:34:11;;;;;;;2.83;1.40;;;;;;;7.99;55.56;98842.81;5450395;26;20589;-66
2024/04/16 09:36:46;;;;;;;2.87;1.20;;;;;;;7.94;55.05;98812.13;5447960;26;20621;-68
2024/04/16 09:39:19;;;;;;;2.43;1.40;;;;;;;7.99;55.75;98812.03;5448907;26;20288;-67
2024/04/16 09:41:48;;;;;;;3.50;1.30;;;;;;;8.09;55.66;98797.28;5446383;26;20337;-67
2024/04/16 09:44:18;;;;;;;3.87;1.70;;;;;;;8.17;55.12;98800.53;5451495;26;20280;-67
2024/04/16 09:46:47;;;;;;;4.87;1.40;;;;;;;8.22;55.32;98814.13;5449885;26;20242;-66
2024/04/16 09:49:26;;;;;;;1.90;1.63;;;;;;;8.28;55.63;98790.88;5452316;26;20241;-67
2024/04/16 09:52:07;;;;;;;3.00;1.67;;;;;;;8.33;55.64;98811.31;5448843;26;20290;-67
2024/04/16 09:54:42;;;;;;;3.73;1.70;;;;;;;8.33;56.16;98808.75;5451752;26;20289;-66
2024/04/16 09:57:10;;;;;;;4.30;1.50;;;;;;;8.32;55.99;98796.78;5442899;26;20725;-64
2024/04/16 09:59:40;;;;;;;2.47;1.30;;;;;;;8.28;56.25;98790.88;5451353;26;21009;-66
2024/04/16 10:02:09;;;;;;;2.20;1.90;;;;;;;8.24;56.65;98796.94;5448879;26;20736;-66
2024/04/16 10:04:43;;;;;;;3.90;1.50;;;;;;;8.40;56.90;98810.34;5433417;26;20246;-67
2024/04/16 10:07:10;;;;;;;3.70;1.67;;;;;;;8.49;56.12;98801.56;5453667;26;20272;-67
2024/04/16 10:09:40;;;;;;;2.87;1.70;;;;;;;8.56;56.11;98796.25;5453630;26;20248;-67
2024/04/16 10:12:08;;;;;;;3.63;1.90;;;;;;;8.65;55.74;98796.06;5451484;26;20289;-66
2024/04/16 10:14:39;;;;;;;1.77;1.53;;;;;;;8.75;55.53;98803.53;5453654;26;20234;-66
2024/04/16 10:17:12;;;;;;;2.67;1.50;;;;;;;8.82;54.13;98797.34;5453204;26;20234;-66
2024/04/16 10:19:45;;;;;;;4.20;1.40;;;;;;;8.79;54.18;98789.72;5450910;26;20234;-66
2024/04/16 10:22:13;;;;;;;4.30;1.30;;;;;;;8.84;54.39;98793.88;5431601;26;20766;-66
2024/04/16 10:24:53;;;;;;;3.23;1.37;;;;;;;8.93;53.58;98806.47;5453374;26;20307;-66
2024/04/16 10:27:21;;;;;;;3.13;1.43;;;;;;;9.06;53.30;98788.22;5453075;26;20304;-66
2024/04/16 10:30:07;;;;;;;1.83;1.00;;;;;;;9.19;51.52;98763.84;5452923;26;20230;-66
2024/04/16 10:32:42;;;;;;;2.13;1.00;;;;;;;9.26;51.39;98800.53;5448169;26;20245;-66
2024/04/16 10:35:16;;;;;;;2.63;0.87;;;;;;;9.31;51.30;98788.38;5452471;26;20242;-66
2024/04/16 10:37:46;;;;;;;2.87;0.90;;;;;;;9.28;50.14;98785.88;5468199;26;20848;-67
2024/04/16 10:40:25;;;;;;;2.23;1.10;;;;;;;9.34;50.44;98798.59;5452214;26;20708;-67
2024/04/16 10:42:53;;;;;;;1.37;0.93;;;;;;;9.27;49.56;98787.63;5450955;26;20262;-64
2024/04/16 10:45:24;;;;;;;1.23;0.90;;;;;;;9.12;49.60;98788.03;5450209;26;20833;-66
2024/04/16 10:47:52;;;;;;;3.30;1.20;;;;;;;8.90;50.57;98798.84;5439014;26;20234;-66
2024/04/16 10:50:24;;;;;;;1.83;1.03;;;;;;;8.85;50.83;98782.72;5452705;26;20302;-64
2024/04/16 10:52:52;;;;;;;1.33;0.80;;;;;;;8.87;51.15;98777.53;5452836;26;20843;-68
2024/04/16 10:55:24;;;;;;;3.40;1.00;;;;;;;8.97;51.50;98768.72;5452090;26;20987;-67
2024/04/16 10:57:52;;;;;;;2.90;1.13;;;;;;;9.02;51.19;98756.59;5453230;26;20277;-68
2024/04/16 11:00:22;;;;;;;1.53;1.03;;;;;;;9.06;51.22;98773.63;5452103;26;20261;-66
2024/04/16 11:02:53;;;;;;;1.47;1.00;;;;;;;9.20;51.14;98778.38;5433507;26;20756;-64
2024/04/16 11:05:26;;;;;;;1.30;1.00;;;;;;;9.28;50.20;98743.06;5435558;26;20246;-66
2024/04/16 11:07:53;;;;;;;7.00;1.13;;;;;;;9.36;50.48;98766.00;5452030;26;20286;-67
2024/04/16 11:10:23;;;;;;;1.13;0.90;;;;;;;9.36;49.24;98776.28;5448470;26;20796;-65
2024/04/16 11:12:51;;;;;;;1.67;0.90;;;;;;;9.31;49.22;98772.97;5450430;26;20685;-67
2024/04/16 11:15:22;;;;;;;1.17;0.90;;;;;;;9.19;49.37;98754.41;5450543;26;20226;-67
2024/04/16 11:17:49;;;;;;;1.00;0.77;;;;;;;9.08;49.55;98776.97;5450366;26;20656;-68
2024/04/16 11:20:20;;;;;;;1.90;1.13;;;;;;;9.04;49.93;98785.66;5451401;26;20330;-68
2024/04/16 11:22:50;;;;;;;3.70;0.90;;;;;;;9.09;50.11;98790.66;5452703;26;20342;-68
2024/04/16 11:25:20;;;;;;;1.70;0.93;;;;;;;9.28;50.44;98778.19;5451193;26;20628;-66
2024/04/16 11:27:48;;;;;;;4.37;1.07;;;;;;;9.41;49.53;98789.84;5448126;26;20592;-67
2024/04/16 11:30:18;;;;;;;2.37;1.20;;;;;;;9.38;49.30;98771.91;5463961;26;20733;-69
2024/04/16 11:32:45;;;;;;;1.80;1.03;;;;;;;9.39;49.35;98781.34;5449600;26;20247;-66
2024/04/16 11:35:19;;;;;;;6.23;1.33;;;;;;;9.33;49.59;98784.91;5449122;26;20797;-67
2024/04/16 11:37:46;;;;;;;3.10;0.87;;;;;;;9.27;49.68;98800.47;5449649;26;20242;-66
2024/04/16 11:40:19;;;;;;;5.90;1.17;;;;;;;9.14;49.88;98787.13;5449841;26;20265;-68
2024/04/16 11:42:46;;;;;;;2.20;1.10;;;;;;;9.01;50.61;98787.47;5450981;26;20293;-69
2024/04/16 11:45:17;;;;;;;1.20;0.90;;;;;;;8.95;50.65;98785.91;5452385;26;20335;-63
2024/04/16 11:47:45;;;;;;;2.97;1.17;;;;;;;8.98;50.94;98796.06;5451158;26;20234;-66
2024/04/16 11:50:15;;;;;;;2.07;1.27;;;;;;;9.04;51.49;98795.94;5451487;26;20579;-65
2024/04/16 11:52:43;;;;;;;3.20;1.43;;;;;;;9.11;50.17;98789.75;5451871;26;20572;-64